sensor_id;sensor_type;location;lat;lon;timestamp;pressure;altitude;pressure_sealevel;temperature;humidity
9439;BME280;5176;42.622;25.386;2022-11-06T00:00:37;97035.38;;;14.32;95.32
9439;BME280;5176;42.622;25.386;2022-11-06T00:03:05;97024.41;;;14.37;94.11
9439;BME280;5176;42.622;25.386;2022-11-06T00:05:32;97034.25;;;14.35;93.56
9439;BME280;5176;42.622;25.386;2022-11-06T00:08:30;97021.44;;;14.30;92.71
9439;BME280;5176;42.622;25.386;2022-11-06T00:10:57;97033.47;;;14.23;94.26
9439;BME280;5176;42.622;25.386;2022-11-06T00:13:25;97025.22;;;14.16;94.13
9439;BME280;5176;42.622;25.386;2022-11-06T00:15:52;97039.38;;;14.15;94.21
9439;BME280;5176;42.622;25.386;2022-11-06T00:18:19;97029.81;;;14.03;95.57
9439;BME280;5176;42.622;25.386;2022-11-06T00:20:47;97042.50;;;14.09;93.82
9439;BME280;5176;42.622;25.386;2022-11-06T00:23:14;97037.34;;;14.08;94.13
9439;BME280;5176;42.622;25.386;2022-11-06T00:25:42;97038.94;;;13.99;93.86
9439;BME280;5176;42.622;25.386;2022-11-06T00:28:09;97039.53;;;14.03;94.19
9439;BME280;5176;42.622;25.386;2022-11-06T00:30:37;97038.69;;;14.02;93.75
9439;BME280;5176;42.622;25.386;2022-11-06T00:33:04;97042.53;;;13.98;93.27
9439;BME280;5176;42.622;25.386;2022-11-06T00:35:31;97038.00;;;13.89;94.08
9439;BME280;5176;42.622;25.386;2022-11-06T00:37:58;97035.28;;;13.79;94.60
9439;BME280;5176;42.622;25.386;2022-11-06T00:40:26;97040.88;;;13.86;92.92
9439;BME280;5176;42.622;25.386;2022-11-06T00:42:56;97032.50;;;13.81;92.91
9439;BME280;5176;42.622;25.386;2022-11-06T00:45:24;97039.47;;;13.71;94.44
9439;BME280;5176;42.622;25.386;2022-11-06T00:47:51;97040.06;;;13.74;94.93
9439;BME280;5176;42.622;25.386;2022-11-06T00:50:18;97041.66;;;13.54;95.70
9439;BME280;5176;42.622;25.386;2022-11-06T00:52:45;97038.19;;;13.65;94.39
9439;BME280;5176;42.622;25.386;2022-11-06T00:55:12;97030.03;;;13.57;94.34
9439;BME280;5176;42.622;25.386;2022-11-06T00:57:39;97040.34;;;13.60;96.08
9439;BME280;5176;42.622;25.386;2022-11-06T01:00:09;97035.44;;;13.44;97.92
9439;BME280;5176;42.622;25.386;2022-11-06T01:02:37;97034.00;;;13.51;98.82
9439;BME280;5176;42.622;25.386;2022-11-06T01:05:05;97039.38;;;13.50;98.55
9439;BME280;5176;42.622;25.386;2022-11-06T01:07:32;97028.84;;;13.39;99.23
9439;BME280;5176;42.622;25.386;2022-11-06T01:09:59;97027.19;;;13.38;99.62
9439;BME280;5176;42.622;25.386;2022-11-06T01:12:26;97022.63;;;13.40;98.65
9439;BME280;5176;42.622;25.386;2022-11-06T01:14:56;97023.22;;;13.43;98.74
9439;BME280;5176;42.622;25.386;2022-11-06T01:17:25;97022.75;;;13.38;99.17
9439;BME280;5176;42.622;25.386;2022-11-06T01:19:52;97022.16;;;13.34;97.85
9439;BME280;5176;42.622;25.386;2022-11-06T01:22:19;97019.88;;;13.30;97.32
9439;BME280;5176;42.622;25.386;2022-11-06T01:24:46;97015.44;;;13.19;97.00
9439;BME280;5176;42.622;25.386;2022-11-06T01:27:13;97013.75;;;13.07;97.98
9439;BME280;5176;42.622;25.386;2022-11-06T01:29:41;97010.75;;;13.12;97.82
9439;BME280;5176;42.622;25.386;2022-11-06T01:32:08;97009.19;;;13.09;100.00
9439;BME280;5176;42.622;25.386;2022-11-06T01:34:36;97010.13;;;12.97;100.00
9439;BME280;5176;42.622;25.386;2022-11-06T01:37:03;97023.53;;;12.94;100.00
9439;BME280;5176;42.622;25.386;2022-11-06T01:39:31;97016.59;;;12.93;99.05
9439;BME280;5176;42.622;25.386;2022-11-06T01:41:58;97020.66;;;12.97;99.16
9439;BME280;5176;42.622;25.386;2022-11-06T01:47:42;97016.34;;;12.96;100.00
9439;BME280;5176;42.622;25.386;2022-11-06T01:50:11;97019.34;;;12.91;100.00
9439;BME280;5176;42.622;25.386;2022-11-06T01:52:41;97026.13;;;12.82;100.00
9439;BME280;5176;42.622;25.386;2022-11-06T01:55:13;97018.03;;;12.86;100.00
9439;BME280;5176;42.622;25.386;2022-11-06T01:57:42;97016.44;;;12.83;99.75
9439;BME280;5176;42.622;25.386;2022-11-06T02:00:11;97016.22;;;12.86;98.49
9439;BME280;5176;42.622;25.386;2022-11-06T02:02:39;97022.09;;;12.78;97.65
9439;BME280;5176;42.622;25.386;2022-11-06T02:05:07;97018.84;;;12.75;96.20
9439;BME280;5176;42.622;25.386;2022-11-06T02:07:36;97014.50;;;12.63;98.12
9439;BME280;5176;42.622;25.386;2022-11-06T02:10:06;97009.47;;;12.60;97.71
9439;BME280;5176;42.622;25.386;2022-11-06T02:12:47;97016.16;;;12.64;96.17
9439;BME280;5176;42.622;25.386;2022-11-06T02:15:26;97013.41;;;12.54;95.84
9439;BME280;5176;42.622;25.386;2022-11-06T02:18:05;97008.69;;;12.35;94.72
9439;BME280;5176;42.622;25.386;2022-11-06T02:20:38;97015.00;;;12.33;95.67
9439;BME280;5176;42.622;25.386;2022-11-06T02:23:30;97012.50;;;12.31;96.70
9439;BME280;5176;42.622;25.386;2022-11-06T02:26:12;97017.56;;;12.45;95.76
9439;BME280;5176;42.622;25.386;2022-11-06T02:28:50;97009.19;;;12.40;95.45
9439;BME280;5176;42.622;25.386;2022-11-06T02:31:23;97000.41;;;12.28;96.41
9439;BME280;5176;42.622;25.386;2022-11-06T02:33:54;97009.88;;;12.31;96.93
9439;BME280;5176;42.622;25.386;2022-11-06T02:36:28;97015.09;;;12.20;100.00
9439;BME280;5176;42.622;25.386;2022-11-06T02:38:59;97009.97;;;12.30;100.00
9439;BME280;5176;42.622;25.386;2022-11-06T02:41:31;97013.91;;;12.24;100.00
9439;BME280;5176;42.622;25.386;2022-11-06T02:44:05;97019.88;;;12.26;100.00
9439;BME280;5176;42.622;25.386;2022-11-06T02:46:36;97018.09;;;12.26;100.00
9439;BME280;5176;42.622;25.386;2022-11-06T02:49:07;97015.22;;;12.30;100.00
9439;BME280;5176;42.622;25.386;2022-11-06T02:51:38;97018.22;;;12.25;99.36
9439;BME280;5176;42.622;25.386;2022-11-06T02:54:08;97019.75;;;12.27;99.63
9439;BME280;5176;42.622;25.386;2022-11-06T02:56:40;97011.81;;;12.16;100.00
9439;BME280;5176;42.622;25.386;2022-11-06T02:59:12;97014.47;;;12.16;100.00
9439;BME280;5176;42.622;25.386;2022-11-06T03:01:43;97027.38;;;12.19;100.00
9439;BME280;5176;42.622;25.386;2022-11-06T03:04:17;97020.16;;;12.10;100.00
9439;BME280;5176;42.622;25.386;2022-11-06T03:06:48;97032.19;;;12.02;99.46
9439;BME280;5176;42.622;25.386;2022-11-06T03:09:18;97028.53;;;12.04;100.00
9439;BME280;5176;42.622;25.386;2022-11-06T03:11:50;97026.03;;;11.90;100.00
9439;BME280;5176;42.622;25.386;2022-11-06T03:14:26;97030.84;;;11.96;100.00
9439;BME280;5176;42.622;25.386;2022-11-06T03:16:57;97035.09;;;11.86;100.00
9439;BME280;5176;42.622;25.386;2022-11-06T03:19:28;97031.28;;;11.90;100.00
9439;BME280;5176;42.622;25.386;2022-11-06T03:22:02;97028.97;;;11.98;100.00
9439;BME280;5176;42.622;25.386;2022-11-06T03:24:35;97034.78;;;11.90;98.70
9439;BME280;5176;42.622;25.386;2022-11-06T03:27:10;97034.47;;;11.69;100.00
9439;BME280;5176;42.622;25.386;2022-11-06T03:29:42;97035.72;;;11.77;100.00
9439;BME280;5176;42.622;25.386;2022-11-06T03:32:16;97039.72;;;11.82;100.00
9439;BME280;5176;42.622;25.386;2022-11-06T03:34:49;97045.28;;;11.90;100.00
9439;BME280;5176;42.622;25.386;2022-11-06T03:37:21;97050.75;;;11.87;98.37
9439;BME280;5176;42.622;25.386;2022-11-06T03:39:52;97040.47;;;11.84;97.24
9439;BME280;5176;42.622;25.386;2022-11-06T03:42:24;97047.91;;;11.78;97.02
9439;BME280;5176;42.622;25.386;2022-11-06T03:44:56;97049.41;;;11.56;99.07
9439;BME280;5176;42.622;25.386;2022-11-06T03:47:29;97040.41;;;11.48;100.00
9439;BME280;5176;42.622;25.386;2022-11-06T03:50:00;97041.38;;;11.46;100.00
9439;BME280;5176;42.622;25.386;2022-11-06T03:52:33;97046.63;;;11.46;99.80
9439;BME280;5176;42.622;25.386;2022-11-06T03:55:06;97049.97;;;11.49;98.77
9439;BME280;5176;42.622;25.386;2022-11-06T03:57:40;97048.28;;;11.48;98.02
9439;BME280;5176;42.622;25.386;2022-11-06T04:00:12;97045.47;;;11.51;100.00
9439;BME280;5176;42.622;25.386;2022-11-06T04:02:45;97062.66;;;11.55;100.00
9439;BME280;5176;42.622;25.386;2022-11-06T04:05:18;97063.38;;;11.57;98.30
9439;BME280;5176;42.622;25.386;2022-11-06T04:07:50;97052.19;;;11.42;98.21
9439;BME280;5176;42.622;25.386;2022-11-06T04:10:33;97063.75;;;11.39;98.82
9439;BME280;5176;42.622;25.386;2022-11-06T04:13:20;97065.22;;;11.31;99.90
9439;BME280;5176;42.622;25.386;2022-11-06T04:16:08;97068.25;;;11.37;98.32
9439;BME280;5176;42.622;25.386;2022-11-06T04:18:35;97072.34;;;11.29;97.72
9439;BME280;5176;42.622;25.386;2022-11-06T04:21:09;97072.28;;;11.17;98.81
9439;BME280;5176;42.622;25.386;2022-11-06T04:24:07;97073.81;;;11.20;98.29
9439;BME280;5176;42.622;25.386;2022-11-06T04:27:05;97064.91;;;11.10;98.42
9439;BME280;5176;42.622;25.386;2022-11-06T04:29:47;97066.38;;;11.14;98.54
9439;BME280;5176;42.622;25.386;2022-11-06T04:32:21;97070.25;;;11.08;97.92
9439;BME280;5176;42.622;25.386;2022-11-06T04:34:59;97068.28;;;10.99;99.67
9439;BME280;5176;42.622;25.386;2022-11-06T04:37:33;97075.63;;;11.07;99.80
9439;BME280;5176;42.622;25.386;2022-11-06T04:40:07;97077.09;;;11.11;99.67
9439;BME280;5176;42.622;25.386;2022-11-06T04:42:39;97076.34;;;11.09;99.51
9439;BME280;5176;42.622;25.386;2022-11-06T04:45:12;97076.03;;;11.26;98.80
9439;BME280;5176;42.622;25.386;2022-11-06T04:47:42;97067.94;;;11.16;99.80
9439;BME280;5176;42.622;25.386;2022-11-06T04:50:10;97076.34;;;11.22;100.00
9439;BME280;5176;42.622;25.386;2022-11-06T04:52:39;97084.63;;;11.28;100.00
9439;BME280;5176;42.622;25.386;2022-11-06T04:55:07;97086.53;;;11.26;100.00
9439;BME280;5176;42.622;25.386;2022-11-06T04:57:35;97084.84;;;11.12;100.00
9439;BME280;5176;42.622;25.386;2022-11-06T05:00:03;97081.81;;;11.06;100.00
9439;BME280;5176;42.622;25.386;2022-11-06T05:02:31;97087.03;;;10.93;100.00
9439;BME280;5176;42.622;25.386;2022-11-06T05:05:00;97088.50;;;11.10;100.00
9439;BME280;5176;42.622;25.386;2022-11-06T05:07:27;97086.84;;;11.09;100.00
9439;BME280;5176;42.622;25.386;2022-11-06T05:09:54;97087.25;;;11.15;100.00
9439;BME280;5176;42.622;25.386;2022-11-06T05:12:21;97085.69;;;11.13;100.00
9439;BME280;5176;42.622;25.386;2022-11-06T05:14:48;97073.41;;;11.13;100.00
9439;BME280;5176;42.622;25.386;2022-11-06T05:17:15;97086.81;;;10.96;100.00
9439;BME280;5176;42.622;25.386;2022-11-06T05:19:43;97084.53;;;11.04;100.00
9439;BME280;5176;42.622;25.386;2022-11-06T05:22:11;97078.47;;;11.04;100.00
9439;BME280;5176;42.622;25.386;2022-11-06T05:24:56;97082.53;;;10.95;100.00
9439;BME280;5176;42.622;25.386;2022-11-06T05:27:23;97082.00;;;11.03;100.00
9439;BME280;5176;42.622;25.386;2022-11-06T05:29:50;97092.00;;;11.10;100.00
9439;BME280;5176;42.622;25.386;2022-11-06T05:32:17;97099.84;;;11.23;99.14
9439;BME280;5176;42.622;25.386;2022-11-06T05:34:45;97107.53;;;11.26;98.87
9439;BME280;5176;42.622;25.386;2022-11-06T05:37:13;97101.97;;;11.31;99.08
9439;BME280;5176;42.622;25.386;2022-11-06T05:39:40;97103.94;;;11.27;99.85
9439;BME280;5176;42.622;25.386;2022-11-06T05:42:07;97103.94;;;11.27;99.40
9439;BME280;5176;42.622;25.386;2022-11-06T05:44:35;97108.59;;;11.24;100.00
9439;BME280;5176;42.622;25.386;2022-11-06T05:47:02;97112.53;;;11.29;99.19
9439;BME280;5176;42.622;25.386;2022-11-06T05:49:29;97109.91;;;11.16;100.00
9439;BME280;5176;42.622;25.386;2022-11-06T05:51:56;97114.13;;;11.32;99.40
9439;BME280;5176;42.622;25.386;2022-11-06T05:54:25;97124.72;;;11.43;98.08
9439;BME280;5176;42.622;25.386;2022-11-06T05:56:52;97121.91;;;11.33;99.48
9439;BME280;5176;42.622;25.386;2022-11-06T05:59:19;97120.22;;;11.32;100.00
9439;BME280;5176;42.622;25.386;2022-11-06T06:01:46;97125.88;;;11.52;100.00
9439;BME280;5176;42.622;25.386;2022-11-06T06:04:13;97135.56;;;11.51;98.83
9439;BME280;5176;42.622;25.386;2022-11-06T06:06:41;97142.59;;;11.51;99.41
9439;BME280;5176;42.622;25.386;2022-11-06T06:09:08;97133.66;;;11.53;99.59
9439;BME280;5176;42.622;25.386;2022-11-06T06:11:37;97140.03;;;11.62;99.79
9439;BME280;5176;42.622;25.386;2022-11-06T06:14:04;97136.38;;;11.64;98.60
9439;BME280;5176;42.622;25.386;2022-11-06T06:16:32;97144.16;;;11.66;100.00
9439;BME280;5176;42.622;25.386;2022-11-06T06:18:59;97149.91;;;11.71;99.15
9439;BME280;5176;42.622;25.386;2022-11-06T06:21:27;97148.22;;;11.70;99.47
9439;BME280;5176;42.622;25.386;2022-11-06T06:23:54;97151.91;;;11.67;100.00
9439;BME280;5176;42.622;25.386;2022-11-06T06:26:21;97158.53;;;11.73;100.00
9439;BME280;5176;42.622;25.386;2022-11-06T06:28:50;97165.34;;;11.76;99.67
9439;BME280;5176;42.622;25.386;2022-11-06T06:31:17;97171.34;;;11.65;100.00
9439;BME280;5176;42.622;25.386;2022-11-06T06:33:44;97175.75;;;11.64;100.00
9439;BME280;5176;42.622;25.386;2022-11-06T06:36:11;97175.84;;;11.63;100.00
9439;BME280;5176;42.622;25.386;2022-11-06T06:38:39;97183.41;;;11.67;99.21
9439;BME280;5176;42.622;25.386;2022-11-06T06:41:07;97180.66;;;11.69;98.36
9439;BME280;5176;42.622;25.386;2022-11-06T06:43:35;97185.09;;;11.68;98.30
9439;BME280;5176;42.622;25.386;2022-11-06T06:46:06;97193.06;;;11.67;98.83
9439;BME280;5176;42.622;25.386;2022-11-06T06:48:34;97197.38;;;11.68;99.51
9439;BME280;5176;42.622;25.386;2022-11-06T06:51:02;97198.78;;;11.86;99.84
9439;BME280;5176;42.622;25.386;2022-11-06T06:53:30;97197.41;;;11.93;99.14
9439;BME280;5176;42.622;25.386;2022-11-06T06:55:57;97196.44;;;12.07;98.97
9439;BME280;5176;42.622;25.386;2022-11-06T06:58:25;97199.06;;;12.07;99.11
9439;BME280;5176;42.622;25.386;2022-11-06T07:00:52;97202.81;;;12.16;98.99
9439;BME280;5176;42.622;25.386;2022-11-06T07:03:21;97202.19;;;12.25;99.53
9439;BME280;5176;42.622;25.386;2022-11-06T07:05:49;97206.16;;;12.31;100.00
9439;BME280;5176;42.622;25.386;2022-11-06T07:08:16;97205.06;;;12.46;99.90
9439;BME280;5176;42.622;25.386;2022-11-06T07:10:43;97216.69;;;12.54;100.00
9439;BME280;5176;42.622;25.386;2022-11-06T07:13:10;97203.19;;;12.72;100.00
9439;BME280;5176;42.622;25.386;2022-11-06T07:15:38;97217.44;;;12.80;100.00
9439;BME280;5176;42.622;25.386;2022-11-06T07:18:06;97213.47;;;12.99;100.00
9439;BME280;5176;42.622;25.386;2022-11-06T07:20:35;97213.41;;;13.12;99.29
9439;BME280;5176;42.622;25.386;2022-11-06T07:23:05;97207.72;;;13.29;98.59
9439;BME280;5176;42.622;25.386;2022-11-06T07:25:32;97199.75;;;13.42;97.88
9439;BME280;5176;42.622;25.386;2022-11-06T07:28:00;97208.19;;;13.58;96.79
9439;BME280;5176;42.622;25.386;2022-11-06T07:30:28;97206.13;;;13.61;95.67
9439;BME280;5176;42.622;25.386;2022-11-06T07:32:55;97206.75;;;13.65;95.00
9439;BME280;5176;42.622;25.386;2022-11-06T07:35:22;97212.25;;;13.73;94.55
9439;BME280;5176;42.622;25.386;2022-11-06T07:37:51;97212.50;;;13.81;94.16
9439;BME280;5176;42.622;25.386;2022-11-06T07:40:18;97211.06;;;13.88;93.91
9439;BME280;5176;42.622;25.386;2022-11-06T07:42:45;97203.66;;;13.94;93.56
9439;BME280;5176;42.622;25.386;2022-11-06T07:45:13;97206.53;;;14.02;93.26
9439;BME280;5176;42.622;25.386;2022-11-06T07:47:40;97215.41;;;14.12;92.64
9439;BME280;5176;42.622;25.386;2022-11-06T07:50:08;97213.56;;;14.24;91.56
9439;BME280;5176;42.622;25.386;2022-11-06T07:52:35;97211.53;;;14.27;90.86
9439;BME280;5176;42.622;25.386;2022-11-06T07:55:05;97206.16;;;14.29;90.21
9439;BME280;5176;42.622;25.386;2022-11-06T07:57:34;97207.94;;;14.39;89.75
9439;BME280;5176;42.622;25.386;2022-11-06T08:00:03;97207.94;;;14.51;89.18
9439;BME280;5176;42.622;25.386;2022-11-06T08:02:30;97206.03;;;14.53;89.10
9439;BME280;5176;42.622;25.386;2022-11-06T08:04:57;97208.53;;;14.65;88.48
9439;BME280;5176;42.622;25.386;2022-11-06T08:07:25;97209.44;;;14.76;87.93
9439;BME280;5176;42.622;25.386;2022-11-06T08:09:52;97202.56;;;14.84;87.86
9439;BME280;5176;42.622;25.386;2022-11-06T08:12:20;97197.06;;;14.87;87.21
9439;BME280;5176;42.622;25.386;2022-11-06T08:14:48;97196.44;;;14.95;86.70
9439;BME280;5176;42.622;25.386;2022-11-06T08:17:15;97193.97;;;15.03;86.81
9439;BME280;5176;42.622;25.386;2022-11-06T08:19:42;97202.19;;;15.21;86.39
9439;BME280;5176;42.622;25.386;2022-11-06T08:22:09;97204.16;;;15.40;85.91
9439;BME280;5176;42.622;25.386;2022-11-06T08:24:37;97200.47;;;15.52;84.13
9439;BME280;5176;42.622;25.386;2022-11-06T08:27:04;97195.88;;;15.65;82.94
9439;BME280;5176;42.622;25.386;2022-11-06T08:29:33;97198.28;;;15.78;82.06
9439;BME280;5176;42.622;25.386;2022-11-06T08:32:01;97197.94;;;15.92;82.64
9439;BME280;5176;42.622;25.386;2022-11-06T08:34:28;97203.28;;;16.02;80.72
9439;BME280;5176;42.622;25.386;2022-11-06T08:36:55;97193.59;;;16.12;80.52
9439;BME280;5176;42.622;25.386;2022-11-06T08:39:22;97201.41;;;16.23;79.91
9439;BME280;5176;42.622;25.386;2022-11-06T08:41:50;97197.78;;;16.24;79.56
9439;BME280;5176;42.622;25.386;2022-11-06T08:44:17;97195.47;;;16.41;79.15
9439;BME280;5176;42.622;25.386;2022-11-06T08:46:47;97201.22;;;16.46;78.26
9439;BME280;5176;42.622;25.386;2022-11-06T08:49:14;97197.19;;;16.61;77.49
9439;BME280;5176;42.622;25.386;2022-11-06T08:51:42;97194.84;;;16.68;76.92
9439;BME280;5176;42.622;25.386;2022-11-06T08:54:09;97192.34;;;16.66;76.49
9439;BME280;5176;42.622;25.386;2022-11-06T08:56:37;97203.38;;;16.71;76.69
9439;BME280;5176;42.622;25.386;2022-11-06T08:59:04;97206.00;;;16.71;76.27
9439;BME280;5176;42.622;25.386;2022-11-06T09:01:31;97205.00;;;16.62;77.09
9439;BME280;5176;42.622;25.386;2022-11-06T09:04:00;97206.38;;;16.57;77.14
9439;BME280;5176;42.622;25.386;2022-11-06T09:06:28;97205.00;;;16.53;77.93
9439;BME280;5176;42.622;25.386;2022-11-06T09:08:55;97206.09;;;16.50;78.15
9439;BME280;5176;42.622;25.386;2022-11-06T09:11:23;97205.53;;;16.47;78.70
9439;BME280;5176;42.622;25.386;2022-11-06T09:13:50;97206.63;;;16.44;78.86
9439;BME280;5176;42.622;25.386;2022-11-06T09:16:17;97207.72;;;16.42;79.50
9439;BME280;5176;42.622;25.386;2022-11-06T09:18:44;97208.72;;;16.50;80.12
9439;BME280;5176;42.622;25.386;2022-11-06T09:21:13;97210.97;;;16.55;79.47
9439;BME280;5176;42.622;25.386;2022-11-06T09:23:40;97207.22;;;16.57;78.72
9439;BME280;5176;42.622;25.386;2022-11-06T09:26:08;97208.75;;;16.60;78.63
9439;BME280;5176;42.622;25.386;2022-11-06T09:28:35;97208.31;;;16.45;79.19
9439;BME280;5176;42.622;25.386;2022-11-06T09:31:03;97201.91;;;16.48;79.25
9439;BME280;5176;42.622;25.386;2022-11-06T09:33:30;97198.56;;;16.46;79.02
9439;BME280;5176;42.622;25.386;2022-11-06T09:35:57;97199.69;;;16.53;79.28
9439;BME280;5176;42.622;25.386;2022-11-06T09:38:26;97207.22;;;16.57;78.66
9439;BME280;5176;42.622;25.386;2022-11-06T09:40:55;97198.63;;;16.65;78.78
9439;BME280;5176;42.622;25.386;2022-11-06T09:43:32;97200.41;;;16.65;79.20
9439;BME280;5176;42.622;25.386;2022-11-06T09:46:07;97206.41;;;16.67;79.19
9439;BME280;5176;42.622;25.386;2022-11-06T09:48:42;97209.78;;;16.78;79.42
9439;BME280;5176;42.622;25.386;2022-11-06T09:51:16;97206.75;;;16.93;78.97
9439;BME280;5176;42.622;25.386;2022-11-06T09:53:50;97201.47;;;17.02;76.93
9439;BME280;5176;42.622;25.386;2022-11-06T09:56:20;97205.66;;;17.14;76.63
9439;BME280;5176;42.622;25.386;2022-11-06T09:58:51;97201.63;;;17.20;75.86
9439;BME280;5176;42.622;25.386;2022-11-06T10:01:21;97203.97;;;17.23;75.74
9439;BME280;5176;42.622;25.386;2022-11-06T10:03:54;97197.53;;;17.45;74.55
9439;BME280;5176;42.622;25.386;2022-11-06T10:06:23;97195.81;;;17.63;73.82
9439;BME280;5176;42.622;25.386;2022-11-06T10:08:54;97198.22;;;17.66;73.27
9439;BME280;5176;42.622;25.386;2022-11-06T10:11:42;97193.72;;;17.86;73.05
9439;BME280;5176;42.622;25.386;2022-11-06T10:14:23;97194.81;;;17.93;71.18
9439;BME280;5176;42.622;25.386;2022-11-06T10:16:58;97185.88;;;17.85;71.72
9439;BME280;5176;42.622;25.386;2022-11-06T10:19:38;97194.09;;;17.91;71.86
9439;BME280;5176;42.622;25.386;2022-11-06T10:22:13;97185.88;;;17.94;72.05
9439;BME280;5176;42.622;25.386;2022-11-06T10:24:46;97180.50;;;18.14;71.06
9439;BME280;5176;42.622;25.386;2022-11-06T10:27:15;97176.69;;;18.26;70.44
9439;BME280;5176;42.622;25.386;2022-11-06T10:29:56;97177.19;;;18.39;69.99
9439;BME280;5176;42.622;25.386;2022-11-06T10:32:47;97177.69;;;18.70;68.00
9439;BME280;5176;42.622;25.386;2022-11-06T10:35:19;97174.16;;;18.97;66.75
9439;BME280;5176;42.622;25.386;2022-11-06T10:37:49;97175.44;;;19.11;65.55
9439;BME280;5176;42.622;25.386;2022-11-06T10:40:24;97172.16;;;19.17;64.67
9439;BME280;5176;42.622;25.386;2022-11-06T10:43:00;97169.28;;;19.28;64.63
9439;BME280;5176;42.622;25.386;2022-11-06T10:45:33;97164.91;;;19.45;64.45
9439;BME280;5176;42.622;25.386;2022-11-06T10:48:12;97149.75;;;19.38;64.14
9439;BME280;5176;42.622;25.386;2022-11-06T10:50:51;97151.94;;;19.42;63.91
9439;BME280;5176;42.622;25.386;2022-11-06T10:53:29;97155.59;;;19.41;64.36
9439;BME280;5176;42.622;25.386;2022-11-06T10:56:09;97158.25;;;19.41;64.31
9439;BME280;5176;42.622;25.386;2022-11-06T10:58:41;97149.22;;;19.34;64.66
9439;BME280;5176;42.622;25.386;2022-11-06T11:01:11;97155.53;;;19.33;65.03
9439;BME280;5176;42.622;25.386;2022-11-06T11:03:42;97150.13;;;19.25;65.38
9439;BME280;5176;42.622;25.386;2022-11-06T11:06:09;97147.41;;;19.17;65.87
9439;BME280;5176;42.622;25.386;2022-11-06T11:08:39;97144.47;;;19.20;66.26
9439;BME280;5176;42.622;25.386;2022-11-06T11:11:26;97141.59;;;19.13;66.87
9439;BME280;5176;42.622;25.386;2022-11-06T11:14:14;97140.44;;;19.16;66.20
9439;BME280;5176;42.622;25.386;2022-11-06T11:16:47;97142.66;;;19.20;66.47
9439;BME280;5176;42.622;25.386;2022-11-06T11:19:27;97139.63;;;19.15;66.46
9439;BME280;5176;42.622;25.386;2022-11-06T11:22:00;97141.00;;;19.19;66.24
9439;BME280;5176;42.622;25.386;2022-11-06T11:24:27;97130.69;;;19.24;66.13
9439;BME280;5176;42.622;25.386;2022-11-06T11:26:59;97132.16;;;19.19;66.18
9439;BME280;5176;42.622;25.386;2022-11-06T11:29:30;97129.50;;;19.19;66.71
9439;BME280;5176;42.622;25.386;2022-11-06T11:32:00;97126.38;;;19.23;65.96
9439;BME280;5176;42.622;25.386;2022-11-06T11:34:29;97123.72;;;19.23;66.12
9439;BME280;5176;42.622;25.386;2022-11-06T11:36:59;97118.88;;;19.19;65.91
9439;BME280;5176;42.622;25.386;2022-11-06T11:39:29;97122.84;;;19.15;65.13
9439;BME280;5176;42.622;25.386;2022-11-06T11:42:22;97126.84;;;19.19;65.53
9439;BME280;5176;42.622;25.386;2022-11-06T11:45:15;97130.19;;;19.21;65.10
9439;BME280;5176;42.622;25.386;2022-11-06T11:47:44;97122.59;;;19.26;65.12
9439;BME280;5176;42.622;25.386;2022-11-06T11:50:29;97123.72;;;19.23;64.78
9439;BME280;5176;42.622;25.386;2022-11-06T11:53:00;97115.31;;;19.28;64.68
9439;BME280;5176;42.622;25.386;2022-11-06T11:55:29;97118.41;;;19.23;64.80
9439;BME280;5176;42.622;25.386;2022-11-06T11:58:03;97113.75;;;19.25;65.17
9439;BME280;5176;42.622;25.386;2022-11-06T12:00:52;97118.94;;;19.27;65.02
9439;BME280;5176;42.622;25.386;2022-11-06T12:03:21;97112.09;;;19.24;64.32
9439;BME280;5176;42.622;25.386;2022-11-06T12:05:51;97107.94;;;19.22;64.45
9439;BME280;5176;42.622;25.386;2022-11-06T12:08:23;97106.56;;;19.18;64.25
9439;BME280;5176;42.622;25.386;2022-11-06T12:10:51;97098.75;;;19.16;64.28
9439;BME280;5176;42.622;25.386;2022-11-06T12:13:21;97107.88;;;19.14;64.29
9439;BME280;5176;42.622;25.386;2022-11-06T12:15:52;97109.72;;;19.13;64.89
9439;BME280;5176;42.622;25.386;2022-11-06T12:18:25;97104.41;;;19.13;65.10
9439;BME280;5176;42.622;25.386;2022-11-06T12:20:56;97107.06;;;19.13;65.30
9439;BME280;5176;42.622;25.386;2022-11-06T12:23:29;97103.56;;;19.13;65.25
9439;BME280;5176;42.622;25.386;2022-11-06T12:26:04;97113.50;;;19.11;64.86
9439;BME280;5176;42.622;25.386;2022-11-06T12:28:34;97103.66;;;19.03;64.60
9439;BME280;5176;42.622;25.386;2022-11-06T12:31:08;97114.44;;;19.01;64.80
9439;BME280;5176;42.622;25.386;2022-11-06T12:33:38;97110.16;;;19.09;64.19
9439;BME280;5176;42.622;25.386;2022-11-06T12:36:07;97111.00;;;19.09;64.73
9439;BME280;5176;42.622;25.386;2022-11-06T12:38:40;97111.16;;;19.08;65.11
9439;BME280;5176;42.622;25.386;2022-11-06T12:41:14;97106.34;;;19.11;64.70
9439;BME280;5176;42.622;25.386;2022-11-06T12:43:45;97107.34;;;19.10;64.87
9439;BME280;5176;42.622;25.386;2022-11-06T12:46:31;97105.06;;;19.15;64.05
9439;BME280;5176;42.622;25.386;2022-11-06T12:49:28;97113.88;;;19.16;63.85
9439;BME280;5176;42.622;25.386;2022-11-06T12:52:07;97109.56;;;19.15;63.92
9439;BME280;5176;42.622;25.386;2022-11-06T12:54:45;97108.72;;;19.14;63.53
9439;BME280;5176;42.622;25.386;2022-11-06T12:57:25;97102.41;;;19.15;63.13
9439;BME280;5176;42.622;25.386;2022-11-06T13:00:04;97097.59;;;19.19;62.42
9439;BME280;5176;42.622;25.386;2022-11-06T13:02:56;97105.69;;;19.09;62.40
9439;BME280;5176;42.622;25.386;2022-11-06T13:05:30;97105.22;;;19.14;62.06
9439;BME280;5176;42.622;25.386;2022-11-06T13:08:10;97103.41;;;19.14;61.96
9439;BME280;5176;42.622;25.386;2022-11-06T13:10:49;97107.88;;;19.14;61.85
9439;BME280;5176;42.622;25.386;2022-11-06T13:13:29;97106.34;;;19.11;60.05
9439;BME280;5176;42.622;25.386;2022-11-06T13:16:05;97111.16;;;19.08;60.10
9439;BME280;5176;42.622;25.386;2022-11-06T13:18:39;97117.59;;;19.05;60.06
9439;BME280;5176;42.622;25.386;2022-11-06T13:21:13;97110.16;;;19.09;60.03
9439;BME280;5176;42.622;25.386;2022-11-06T13:23:47;97115.94;;;19.04;59.53
9439;BME280;5176;42.622;25.386;2022-11-06T13:26:21;97117.91;;;19.02;59.87
9439;BME280;5176;42.622;25.386;2022-11-06T13:28:53;97117.09;;;19.01;60.36
9439;BME280;5176;42.622;25.386;2022-11-06T13:31:27;97122.56;;;19.00;60.96
9439;BME280;5176;42.622;25.386;2022-11-06T13:33:57;97113.59;;;19.01;60.89